GLD1620 SBRJ-SBSP
Flight info
| Callsign | GLD1620 |
|---|---|
| Flight time | 0h 49m |
| Altitude | 32000 |
| Route | EVKO4A NAXOP UZ45 IBDAL OGTA2A |
| Aircraft | A20N/M-SDE2E3FGHIRWXY/LB1 |
Departure
| Time | 2026-05-08 02:42 |
|---|---|
| Airport | Santos Dumont Airport (SBRJ) |
Arrival
| Time | 2026-05-08 03:31 |
|---|---|
| Airport | Congonhas–Deputado Freitas Nobre Airport (SBSP) |
| Time | Latitude | Longitude | Altitude | Speed | Heading |
|---|---|---|---|---|---|
| 2026-05-08 02:12 | -22.91169 | -43.16586 | 22 ft | 0 kts | 266° |
| 2026-05-08 02:34 | -22.91168 | -43.16569 | 25 ft | 4 kts | 263° |
| 2026-05-08 02:34 | -22.91163 | -43.16540 | 24 ft | 4 kts | 247° |
| 2026-05-08 02:35 | -22.91149 | -43.16519 | 24 ft | 4 kts | 191° |
| 2026-05-08 02:35 | -22.91142 | -43.16518 | 23 ft | 0 kts | 177° |
| 2026-05-08 02:39 | -22.91143 | -43.16518 | 22 ft | 1 kts | 177° |
| 2026-05-08 02:39 | -22.91205 | -43.16514 | 22 ft | 14 kts | 177° |
| 2026-05-08 02:39 | -22.91323 | -43.16507 | 22 ft | 19 kts | 177° |
| 2026-05-08 02:40 | -22.91436 | -43.16468 | 22 ft | 16 kts | 136° |
| 2026-05-08 02:40 | -22.91473 | -43.16430 | 21 ft | 0 kts | 136° |
| 2026-05-08 02:40 | -22.91475 | -43.16427 | 21 ft | 4 kts | 136° |
| 2026-05-08 02:40 | -22.91523 | -43.16379 | 20 ft | 13 kts | 137° |
| 2026-05-08 02:41 | -22.91593 | -43.16291 | 20 ft | 14 kts | 93° |
| 2026-05-08 02:41 | -22.91497 | -43.16251 | 20 ft | 31 kts | 0° |
| 2026-05-08 02:41 | -22.91182 | -43.16277 | 21 ft | 96 kts | 357° |
| 2026-05-08 02:41 | -22.90262 | -43.16338 | 161 ft | 154 kts | 356° |
| 2026-05-08 02:42 | -22.89155 | -43.16287 | 760 ft | 166 kts | 15° |
| 2026-05-08 02:42 | -22.88079 | -43.15686 | 1350 ft | 184 kts | 41° |
| 2026-05-08 02:42 | -22.87470 | -43.14503 | 2175 ft | 190 kts | 77° |
| 2026-05-08 02:42 | -22.87592 | -43.12983 | 2658 ft | 217 kts | 104° |
| 2026-05-08 02:43 | -22.88045 | -43.11335 | 3240 ft | 239 kts | 102° |
| 2026-05-08 02:43 | -22.88389 | -43.09489 | 3834 ft | 258 kts | 95° |
| 2026-05-08 02:43 | -22.88541 | -43.07549 | 4759 ft | 262 kts | 89° |
| 2026-05-08 02:43 | -22.88576 | -43.05548 | 5701 ft | 267 kts | 86° |
| 2026-05-08 02:44 | -22.88570 | -43.03512 | 6600 ft | 274 kts | 90° |
| 2026-05-08 02:44 | -22.89104 | -43.01497 | 7398 ft | 285 kts | 116° |
| 2026-05-08 02:44 | -22.90389 | -42.99869 | 7779 ft | 292 kts | 142° |
| 2026-05-08 02:44 | -22.92217 | -42.98961 | 7955 ft | 294 kts | 169° |
| 2026-05-08 02:45 | -22.94245 | -42.98979 | 8002 ft | 292 kts | 197° |
| 2026-05-08 02:45 | -22.96031 | -42.99929 | 8013 ft | 286 kts | 224° |
| 2026-05-08 02:45 | -22.97214 | -43.01605 | 8017 ft | 280 kts | 251° |
| 2026-05-08 02:45 | -22.97715 | -43.03609 | 8016 ft | 275 kts | 264° |
| 2026-05-08 02:46 | -22.98176 | -43.05635 | 8016 ft | 277 kts | 254° |
| 2026-05-08 02:46 | -22.99052 | -43.07522 | 8010 ft | 282 kts | 240° |
| 2026-05-08 02:46 | -23.00286 | -43.09184 | 8002 ft | 285 kts | 230° |
| 2026-05-08 02:46 | -23.01708 | -43.10662 | 8000 ft | 287 kts | 225° |
| 2026-05-08 02:47 | -23.03223 | -43.12057 | 8003 ft | 287 kts | 223° |
| 2026-05-08 02:47 | -23.04773 | -43.13425 | 8005 ft | 287 kts | 222° |
| 2026-05-08 02:47 | -23.06326 | -43.14790 | 8002 ft | 288 kts | 222° |
| 2026-05-08 02:47 | -23.07885 | -43.16156 | 8039 ft | 289 kts | 221° |
| 2026-05-08 02:48 | -23.09465 | -43.17521 | 8413 ft | 292 kts | 221° |
| 2026-05-08 02:48 | -23.11055 | -43.18893 | 9286 ft | 293 kts | 221° |
| 2026-05-08 02:48 | -23.12652 | -43.20276 | 10186 ft | 297 kts | 221° |
| 2026-05-08 02:48 | -23.14296 | -43.21705 | 10844 ft | 309 kts | 221° |
| 2026-05-08 02:49 | -23.16030 | -43.23220 | 11158 ft | 333 kts | 221° |
| 2026-05-08 02:49 | -23.17903 | -43.24856 | 11450 ft | 356 kts | 221° |
| 2026-05-08 02:49 | -23.19870 | -43.26570 | 12062 ft | 364 kts | 221° |
| 2026-05-08 02:49 | -23.21851 | -43.28294 | 12905 ft | 367 kts | 220° |
| 2026-05-08 02:50 | -23.23860 | -43.30044 | 13711 ft | 371 kts | 220° |
| 2026-05-08 02:50 | -23.25879 | -43.31805 | 14413 ft | 375 kts | 220° |
| 2026-05-08 02:50 | -23.27913 | -43.33581 | 15125 ft | 378 kts | 220° |
| 2026-05-08 02:50 | -23.29982 | -43.35388 | 15791 ft | 382 kts | 220° |
| 2026-05-08 02:51 | -23.31962 | -43.37260 | 16421 ft | 385 kts | 229° |
| 2026-05-08 02:51 | -23.33531 | -43.39624 | 17048 ft | 386 kts | 244° |
| 2026-05-08 02:51 | -23.34496 | -43.42354 | 17660 ft | 388 kts | 257° |
| 2026-05-08 02:51 | -23.35156 | -43.45222 | 18270 ft | 393 kts | 258° |
| 2026-05-08 02:52 | -23.35827 | -43.48117 | 18861 ft | 395 kts | 257° |
| 2026-05-08 02:52 | -23.36497 | -43.50986 | 19552 ft | 393 kts | 257° |
| 2026-05-08 02:52 | -23.37171 | -43.53866 | 20230 ft | 393 kts | 257° |
| 2026-05-08 02:52 | -23.37847 | -43.56754 | 20873 ft | 394 kts | 257° |
| 2026-05-08 02:53 | -23.38520 | -43.59634 | 21518 ft | 395 kts | 256° |
| 2026-05-08 02:53 | -23.39201 | -43.62548 | 22086 ft | 398 kts | 256° |
| 2026-05-08 02:53 | -23.39885 | -43.65478 | 22664 ft | 400 kts | 256° |
| 2026-05-08 02:53 | -23.40571 | -43.68420 | 23239 ft | 403 kts | 256° |
| 2026-05-08 02:54 | -23.41262 | -43.71385 | 23764 ft | 405 kts | 256° |
| 2026-05-08 02:54 | -23.41954 | -43.74355 | 24245 ft | 407 kts | 256° |
| 2026-05-08 02:54 | -23.42653 | -43.77361 | 24734 ft | 409 kts | 256° |
| 2026-05-08 02:54 | -23.43352 | -43.80367 | 25195 ft | 412 kts | 256° |
| 2026-05-08 02:55 | -23.44058 | -43.83403 | 25661 ft | 414 kts | 256° |
| 2026-05-08 02:55 | -23.45462 | -43.89460 | 26570 ft | 418 kts | 256° |
| 2026-05-08 02:55 | -23.46177 | -43.92547 | 27008 ft | 420 kts | 256° |
| 2026-05-08 02:56 | -23.46894 | -43.95644 | 27442 ft | 423 kts | 256° |
| 2026-05-08 02:56 | -23.47611 | -43.98745 | 27865 ft | 425 kts | 255° |
| 2026-05-08 02:56 | -23.48335 | -44.01883 | 28292 ft | 427 kts | 255° |
| 2026-05-08 02:56 | -23.49060 | -44.05026 | 28706 ft | 429 kts | 255° |
| 2026-05-08 02:57 | -23.49790 | -44.08193 | 29094 ft | 432 kts | 255° |
| 2026-05-08 02:57 | -23.50524 | -44.11381 | 29495 ft | 434 kts | 255° |
| 2026-05-08 02:57 | -23.51249 | -44.14533 | 29857 ft | 436 kts | 255° |
| 2026-05-08 02:57 | -23.51997 | -44.17787 | 30225 ft | 438 kts | 255° |
| 2026-05-08 02:58 | -23.52737 | -44.21010 | 30555 ft | 440 kts | 255° |
| 2026-05-08 02:58 | -23.53474 | -44.24219 | 30903 ft | 442 kts | 255° |
| 2026-05-08 02:58 | -23.54219 | -44.27469 | 31262 ft | 443 kts | 255° |
| 2026-05-08 02:58 | -23.54965 | -44.30725 | 31700 ft | 442 kts | 255° |
| 2026-05-08 02:59 | -23.55706 | -44.33959 | 31910 ft | 439 kts | 255° |
| 2026-05-08 02:59 | -23.57176 | -44.40393 | 31974 ft | 437 kts | 255° |
| 2026-05-08 03:00 | -23.58644 | -44.46826 | 31974 ft | 437 kts | 255° |
| 2026-05-08 03:00 | -23.60110 | -44.53268 | 31973 ft | 437 kts | 255° |
| 2026-05-08 03:01 | -23.61568 | -44.59688 | 31974 ft | 436 kts | 255° |
| 2026-05-08 03:01 | -23.63015 | -44.66070 | 31978 ft | 436 kts | 255° |
| 2026-05-08 03:02 | -23.64460 | -44.72455 | 31974 ft | 436 kts | 255° |
| 2026-05-08 03:02 | -23.65920 | -44.78926 | 31973 ft | 436 kts | 255° |
| 2026-05-08 03:03 | -23.67368 | -44.85353 | 31973 ft | 436 kts | 255° |
| 2026-05-08 03:03 | -23.68812 | -44.91774 | 31975 ft | 436 kts | 255° |
| 2026-05-08 03:04 | -23.70249 | -44.98178 | 31930 ft | 429 kts | 255° |
| 2026-05-08 03:04 | -23.70945 | -45.01286 | 31838 ft | 418 kts | 256° |
| 2026-05-08 03:04 | -23.71617 | -45.04290 | 31727 ft | 405 kts | 256° |
| 2026-05-08 03:04 | -23.72273 | -45.07227 | 31604 ft | 392 kts | 256° |
| 2026-05-08 03:05 | -23.72905 | -45.10056 | 31490 ft | 378 kts | 256° |
| 2026-05-08 03:05 | -23.73517 | -45.12801 | 31329 ft | 367 kts | 256° |
| 2026-05-08 03:05 | -23.74119 | -45.15497 | 30883 ft | 364 kts | 256° |
| 2026-05-08 03:05 | -23.74714 | -45.18166 | 30391 ft | 363 kts | 256° |
| 2026-05-08 03:06 | -23.75311 | -45.20844 | 29881 ft | 362 kts | 256° |
| 2026-05-08 03:06 | -23.75904 | -45.23504 | 29379 ft | 359 kts | 256° |
| 2026-05-08 03:06 | -23.76487 | -45.26137 | 28874 ft | 357 kts | 256° |
| 2026-05-08 03:06 | -23.77067 | -45.28764 | 28393 ft | 354 kts | 256° |
| 2026-05-08 03:07 | -23.77643 | -45.31375 | 27867 ft | 352 kts | 256° |
| 2026-05-08 03:07 | -23.78212 | -45.33956 | 27394 ft | 350 kts | 256° |
| 2026-05-08 03:07 | -23.78782 | -45.36542 | 26946 ft | 348 kts | 257° |
| 2026-05-08 03:07 | -23.79338 | -45.39067 | 26501 ft | 346 kts | 257° |
| 2026-05-08 03:08 | -23.79761 | -45.41649 | 26046 ft | 344 kts | 264° |
| 2026-05-08 03:08 | -23.79907 | -45.44236 | 25613 ft | 342 kts | 267° |
| 2026-05-08 03:08 | -23.80034 | -45.46834 | 25176 ft | 340 kts | 266° |
| 2026-05-08 03:08 | -23.80166 | -45.49393 | 24761 ft | 339 kts | 266° |
| 2026-05-08 03:09 | -23.80300 | -45.51961 | 24361 ft | 337 kts | 266° |
| 2026-05-08 03:09 | -23.80433 | -45.54505 | 23962 ft | 335 kts | 266° |
| 2026-05-08 03:09 | -23.80565 | -45.57047 | 23572 ft | 334 kts | 267° |
| 2026-05-08 03:09 | -23.80695 | -45.59568 | 23099 ft | 332 kts | 267° |
| 2026-05-08 03:10 | -23.80824 | -45.62084 | 22625 ft | 331 kts | 267° |
| 2026-05-08 03:10 | -23.80953 | -45.64589 | 22169 ft | 329 kts | 267° |
| 2026-05-08 03:10 | -23.81080 | -45.67074 | 21710 ft | 329 kts | 268° |
| 2026-05-08 03:10 | -23.81207 | -45.69569 | 21259 ft | 328 kts | 268° |
| 2026-05-08 03:11 | -23.81333 | -45.72039 | 20826 ft | 327 kts | 268° |
| 2026-05-08 03:11 | -23.81458 | -45.74521 | 20400 ft | 326 kts | 268° |
| 2026-05-08 03:11 | -23.81582 | -45.76982 | 19973 ft | 325 kts | 269° |
| 2026-05-08 03:11 | -23.81706 | -45.79445 | 19558 ft | 324 kts | 269° |
| 2026-05-08 03:12 | -23.81829 | -45.81904 | 19145 ft | 324 kts | 269° |
| 2026-05-08 03:12 | -23.81951 | -45.84350 | 18748 ft | 323 kts | 269° |
| 2026-05-08 03:12 | -23.82073 | -45.86799 | 18353 ft | 322 kts | 270° |
| 2026-05-08 03:12 | -23.82192 | -45.89200 | 17941 ft | 321 kts | 270° |
| 2026-05-08 03:13 | -23.82311 | -45.91637 | 17559 ft | 318 kts | 270° |
| 2026-05-08 03:13 | -23.82430 | -45.94055 | 17161 ft | 316 kts | 270° |
| 2026-05-08 03:13 | -23.82545 | -45.96415 | 16785 ft | 314 kts | 270° |
| 2026-05-08 03:13 | -23.82661 | -45.98814 | 16388 ft | 312 kts | 270° |
| 2026-05-08 03:14 | -23.82776 | -46.01177 | 16005 ft | 310 kts | 270° |
| 2026-05-08 03:14 | -23.82890 | -46.03529 | 15627 ft | 308 kts | 270° |
| 2026-05-08 03:14 | -23.83002 | -46.05851 | 15265 ft | 306 kts | 270° |
| 2026-05-08 03:14 | -23.83114 | -46.08175 | 14896 ft | 305 kts | 270° |
| 2026-05-08 03:15 | -23.83224 | -46.10475 | 14536 ft | 303 kts | 270° |
| 2026-05-08 03:15 | -23.83333 | -46.12763 | 14179 ft | 302 kts | 270° |
| 2026-05-08 03:15 | -23.83440 | -46.15026 | 13831 ft | 300 kts | 270° |
| 2026-05-08 03:15 | -23.83549 | -46.17331 | 13435 ft | 299 kts | 270° |
| 2026-05-08 03:16 | -23.83655 | -46.19582 | 13061 ft | 296 kts | 270° |
| 2026-05-08 03:16 | -23.83762 | -46.21819 | 12708 ft | 293 kts | 271° |
| 2026-05-08 03:16 | -23.83866 | -46.24006 | 12359 ft | 292 kts | 271° |
| 2026-05-08 03:16 | -23.83968 | -46.26208 | 12033 ft | 288 kts | 271° |
| 2026-05-08 03:17 | -23.84068 | -46.28377 | 11663 ft | 285 kts | 270° |
| 2026-05-08 03:17 | -23.84171 | -46.30578 | 11272 ft | 284 kts | 271° |
| 2026-05-08 03:17 | -23.84273 | -46.32718 | 10954 ft | 281 kts | 271° |
| 2026-05-08 03:17 | -23.84373 | -46.34844 | 10630 ft | 278 kts | 271° |
| 2026-05-08 03:18 | -23.84472 | -46.36944 | 10307 ft | 277 kts | 271° |
| 2026-05-08 03:18 | -23.84570 | -46.39041 | 9990 ft | 275 kts | 271° |
| 2026-05-08 03:18 | -23.84667 | -46.41110 | 9632 ft | 272 kts | 271° |
| 2026-05-08 03:18 | -23.84763 | -46.43166 | 9241 ft | 269 kts | 271° |
| 2026-05-08 03:19 | -23.84859 | -46.45190 | 8811 ft | 268 kts | 271° |
| 2026-05-08 03:19 | -23.84953 | -46.47222 | 8446 ft | 266 kts | 271° |
| 2026-05-08 03:19 | -23.85045 | -46.49233 | 8127 ft | 263 kts | 271° |
| 2026-05-08 03:19 | -23.85136 | -46.51225 | 7771 ft | 262 kts | 271° |
| 2026-05-08 03:20 | -23.85228 | -46.53222 | 7448 ft | 260 kts | 271° |
| 2026-05-08 03:20 | -23.85317 | -46.55200 | 7082 ft | 259 kts | 272° |
| 2026-05-08 03:20 | -23.85407 | -46.57155 | 6784 ft | 256 kts | 272° |
| 2026-05-08 03:20 | -23.85494 | -46.59065 | 6463 ft | 255 kts | 272° |
| 2026-05-08 03:21 | -23.85516 | -46.60988 | 6103 ft | 250 kts | 282° |
| 2026-05-08 03:21 | -23.84914 | -46.62722 | 5734 ft | 242 kts | 308° |
| 2026-05-08 03:21 | -23.83703 | -46.63951 | 5604 ft | 240 kts | 328° |
| 2026-05-08 03:21 | -23.82266 | -46.64930 | 5584 ft | 239 kts | 328° |
| 2026-05-08 03:22 | -23.81110 | -46.65730 | 5590 ft | 239 kts | 328° |
| 2026-05-08 03:22 | -23.79706 | -46.66708 | 5597 ft | 239 kts | 328° |
| 2026-05-08 03:22 | -23.78327 | -46.67670 | 5599 ft | 240 kts | 328° |
| 2026-05-08 03:22 | -23.76918 | -46.68652 | 5601 ft | 240 kts | 328° |
| 2026-05-08 03:23 | -23.75517 | -46.69626 | 5612 ft | 239 kts | 328° |
| 2026-05-08 03:23 | -23.74090 | -46.70618 | 5610 ft | 239 kts | 328° |
| 2026-05-08 03:23 | -23.72708 | -46.71577 | 5614 ft | 239 kts | 328° |
| 2026-05-08 03:23 | -23.71307 | -46.72549 | 5616 ft | 239 kts | 328° |
| 2026-05-08 03:24 | -23.69909 | -46.73520 | 5544 ft | 237 kts | 328° |
| 2026-05-08 03:24 | -23.68525 | -46.74480 | 5274 ft | 236 kts | 328° |
| 2026-05-08 03:24 | -23.67142 | -46.75441 | 4954 ft | 235 kts | 329° |
| 2026-05-08 03:24 | -23.65738 | -46.76417 | 4619 ft | 234 kts | 329° |
| 2026-05-08 03:25 | -23.64365 | -46.77369 | 4526 ft | 239 kts | 329° |
| 2026-05-08 03:25 | -23.62962 | -46.78339 | 4509 ft | 237 kts | 329° |
| 2026-05-08 03:25 | -23.61580 | -46.79297 | 4451 ft | 234 kts | 329° |
| 2026-05-08 03:25 | -23.60214 | -46.80246 | 4194 ft | 238 kts | 329° |
| 2026-05-08 03:26 | -23.58785 | -46.81174 | 4104 ft | 240 kts | 340° |
| 2026-05-08 03:26 | -23.57159 | -46.81430 | 4101 ft | 236 kts | 6° |
| 2026-05-08 03:26 | -23.55674 | -46.80830 | 4098 ft | 225 kts | 32° |
| 2026-05-08 03:26 | -23.54650 | -46.79617 | 4080 ft | 217 kts | 53° |
| 2026-05-08 03:27 | -23.53885 | -46.78248 | 4079 ft | 199 kts | 52° |
| 2026-05-08 03:27 | -23.53165 | -46.77006 | 4096 ft | 193 kts | 51° |
| 2026-05-08 03:27 | -23.52462 | -46.75820 | 4099 ft | 173 kts | 51° |
| 2026-05-08 03:27 | -23.51898 | -46.74786 | 4073 ft | 148 kts | 62° |
| 2026-05-08 03:28 | -23.51772 | -46.74068 | 4103 ft | 147 kts | 81° |
| 2026-05-08 03:28 | -23.52122 | -46.73006 | 4092 ft | 159 kts | 126° |
| 2026-05-08 03:28 | -23.53342 | -46.72073 | 4087 ft | 163 kts | 144° |
| 2026-05-08 03:28 | -23.54302 | -46.71425 | 4091 ft | 163 kts | 144° |
| 2026-05-08 03:29 | -23.55262 | -46.70772 | 4089 ft | 163 kts | 144° |
| 2026-05-08 03:29 | -23.56226 | -46.70111 | 4095 ft | 163 kts | 144° |
| 2026-05-08 03:29 | -23.56862 | -46.69676 | 4119 ft | 163 kts | 144° |
| 2026-05-08 03:29 | -23.57818 | -46.69018 | 4121 ft | 163 kts | 143° |
| 2026-05-08 03:30 | -23.59862 | -46.67556 | 3586 ft | 188 kts | 142° |
| 2026-05-08 03:30 | -23.62102 | -46.66039 | 2696 ft | 170 kts | 143° |
| 2026-05-08 03:31 | -23.63315 | -46.65218 | 2608 ft | 25 kts | 179° |
| 2026-05-08 03:31 | -23.63417 | -46.65271 | 2601 ft | 7 kts | 295° |
| 2026-05-08 03:32 | -23.63374 | -46.65303 | 2602 ft | 9 kts | 330° |
| 2026-05-08 03:32 | -23.63311 | -46.65343 | 2602 ft | 12 kts | 329° |
| 2026-05-08 03:32 | -23.63235 | -46.65393 | 2602 ft | 14 kts | 329° |
| 2026-05-08 03:32 | -23.63144 | -46.65450 | 2602 ft | 16 kts | 332° |
| 2026-05-08 03:33 | -23.63045 | -46.65515 | 2602 ft | 17 kts | 337° |
| 2026-05-08 03:33 | -23.62934 | -46.65569 | 2603 ft | 18 kts | 328° |
| 2026-05-08 03:33 | -23.62825 | -46.65643 | 2602 ft | 19 kts | 324° |
| 2026-05-08 03:33 | -23.62708 | -46.65723 | 2602 ft | 21 kts | 329° |
| 2026-05-08 03:34 | -23.62701 | -46.65795 | 2600 ft | 6 kts | 236° |
| 2026-05-08 03:34 | -23.62719 | -46.65824 | 2600 ft | 0 kts | 239° |